Time;durP1;ratioP1;P1;durP2;ratioP2;P2;SDS_P1;SDS_P2;PMS_P1;PMS_P2;Temp;Humidity;BMP_temperature;BMP_pressure;BME280_temperature;BME280_humidity;BME280_pressure;Samples;Min_cycle;Max_cycle;Signal;HPM_P1;HPM_P2
2023/07/14 00:00:17;;;;;;;1.50;1.13;;;19.80;99.90;;;;;;5060905;28;20202;-72
2023/07/14 00:02:46;;;;;;;1.40;1.30;;;19.80;99.90;;;;;;5059779;28;20239;-74
2023/07/14 00:05:23;;;;;;;1.10;1.10;;;19.60;99.90;;;;;;5061340;28;20664;-72
2023/07/14 00:07:52;;;;;;;1.20;1.20;;;19.50;99.90;;;;;;5061082;28;20248;-74
2023/07/14 00:10:21;;;;;;;1.15;1.15;;;19.40;99.90;;;;;;5060606;28;20215;-73
2023/07/14 00:12:49;;;;;;;1.15;1.10;;;19.40;99.90;;;;;;5059682;28;20222;-72
2023/07/14 00:15:17;;;;;;;1.08;1.05;;;19.40;99.90;;;;;;5058880;28;20285;-72
2023/07/14 00:17:44;;;;;;;0.93;0.93;;;19.40;99.90;;;;;;5062148;28;20281;-73
2023/07/14 00:20:24;;;;;;;1.30;1.20;;;19.50;99.90;;;;;;5057839;28;20198;-73
2023/07/14 00:22:52;;;;;;;1.10;1.10;;;19.50;99.90;;;;;;5058997;28;20884;-73
2023/07/14 00:25:21;;;;;;;1.10;1.00;;;19.50;99.90;;;;;;5060319;28;20281;-73
2023/07/14 00:27:48;;;;;;;1.50;1.20;;;19.50;99.90;;;;;;5059977;28;20229;-70
2023/07/14 00:30:18;;;;;;;1.20;1.10;;;19.60;99.90;;;;;;5061220;28;20238;-71
2023/07/14 00:32:45;;;;;;;1.23;1.13;;;19.50;99.90;;;;;;5059996;28;20271;-74
2023/07/14 00:35:24;;;;;;;1.30;1.20;;;19.60;99.90;;;;;;5057159;28;20277;-73
2023/07/14 00:37:53;;;;;;;1.20;1.20;;;19.50;99.90;;;;;;5069545;23;20206;-78
2023/07/14 00:40:22;;;;;;;1.65;1.30;;;19.50;99.90;;;;;;5019256;28;20285;-79
2023/07/14 00:42:55;;;;;;;1.40;1.30;;;19.40;99.90;;;;;;5018764;28;20285;-78
2023/07/14 00:45:24;;;;;;;1.85;1.20;;;19.50;99.90;;;;;;5015151;28;20207;-79
2023/07/14 00:47:56;;;;;;;1.75;1.40;;;19.40;99.90;;;;;;5021169;28;20235;-79
2023/07/14 00:50:30;;;;;;;1.35;1.25;;;19.50;99.90;;;;;;5037486;28;20346;-78
2023/07/14 00:53:00;;;;;;;1.17;1.15;;;19.50;99.90;;;;;;5036718;28;20266;-79
2023/07/14 00:55:42;;;;;;;1.00;1.00;;;19.60;99.90;;;;;;5037569;28;20226;-81
2023/07/14 00:58:28;;;;;;;1.42;1.33;;;19.60;99.90;;;;;;5037558;28;20943;-79
2023/07/14 01:01:21;;;;;;;1.20;1.20;;;19.60;99.90;;;;;;5036185;28;20658;-78
2023/07/14 01:03:49;;;;;;;1.13;1.10;;;19.60;99.90;;;;;;5037615;28;20234;-78
2023/07/14 01:06:20;;;;;;;1.17;1.17;;;19.50;99.90;;;;;;5041016;28;20195;-78
2023/07/14 01:08:52;;;;;;;1.20;1.20;;;19.40;99.90;;;;;;5039631;28;20764;-78
2023/07/14 01:11:23;;;;;;;1.30;1.20;;;19.30;99.90;;;;;;5033678;28;20710;-78
2023/07/14 01:13:50;;;;;;;1.90;1.17;;;19.10;99.90;;;;;;5039406;28;20268;-78
2023/07/14 01:16:18;;;;;;;1.08;1.08;;;19.00;99.90;;;;;;5035415;28;20234;-78
2023/07/14 01:18:47;;;;;;;0.90;0.90;;;19.00;99.90;;;;;;5038285;28;20305;-79
2023/07/14 01:21:16;;;;;;;1.73;1.13;;;19.00;99.90;;;;;;5034068;28;20258;-79
2023/07/14 01:24:02;;;;;;;1.33;1.23;;;19.00;99.90;;;;;;5037706;28;20294;-79
2023/07/14 01:26:51;;;;;;;1.73;1.13;;;19.00;99.90;;;;;;5035121;28;20210;-79
2023/07/14 01:29:19;;;;;;;1.58;1.30;;;19.00;99.90;;;;;;5032783;28;20306;-79
2023/07/14 01:31:47;;;;;;;1.50;1.40;;;19.00;99.90;;;;;;5037132;28;20708;-78
2023/07/14 01:34:14;;;;;;;1.10;1.10;;;19.00;99.90;;;;;;5033394;28;20207;-79
2023/07/14 01:36:42;;;;;;;1.35;1.25;;;19.00;99.90;;;;;;5037618;28;20296;-79
2023/07/14 01:39:09;;;;;;;1.58;1.27;;;19.00;99.90;;;;;;5035904;28;20246;-78
2023/07/14 01:41:37;;;;;;;1.33;1.20;;;19.00;99.90;;;;;;5036785;28;20528;-78
2023/07/14 01:44:07;;;;;;;1.30;1.20;;;18.90;99.90;;;;;;5037000;28;20230;-79
2023/07/14 01:46:34;;;;;;;1.35;1.25;;;19.00;99.90;;;;;;5038720;28;20645;-79
2023/07/14 01:49:13;;;;;;;1.30;1.20;;;18.90;99.90;;;;;;5035010;28;20569;-80
2023/07/14 01:51:43;;;;;;;2.78;1.00;;;18.90;99.90;;;;;;5037174;28;20486;-78
2023/07/14 01:54:21;;;;;;;1.10;1.10;;;19.00;99.90;;;;;;5037467;28;20191;-78
2023/07/14 01:56:49;;;;;;;1.42;1.33;;;19.00;99.90;;;;;;5034698;28;22201;-78
2023/07/14 01:59:21;;;;;;;1.33;1.23;;;19.00;99.90;;;;;;5036423;28;20335;-79
2023/07/14 02:01:52;;;;;;;1.20;1.10;;;19.00;99.90;;;;;;5039033;28;20286;-77
2023/07/14 02:04:22;;;;;;;1.85;1.10;;;19.00;99.90;;;;;;5039982;28;20206;-78
2023/07/14 02:06:49;;;;;;;1.10;1.10;;;19.00;99.90;;;;;;5041080;28;20298;-78
2023/07/14 02:09:18;;;;;;;1.23;1.13;;;18.90;99.90;;;;;;5039034;28;20644;-78
2023/07/14 02:11:49;;;;;;;0.98;0.98;;;18.90;99.90;;;;;;5041873;28;20657;-78
2023/07/14 02:14:19;;;;;;;1.33;1.23;;;18.80;99.90;;;;;;5040593;28;20287;-78
2023/07/14 02:16:47;;;;;;;1.42;1.10;;;18.80;99.90;;;;;;5043018;28;20689;-78
2023/07/14 02:19:19;;;;;;;1.10;1.10;;;18.90;99.90;;;;;;5037394;28;20219;-77
2023/07/14 02:21:46;;;;;;;2.58;1.58;;;18.90;99.90;;;;;;5041678;28;20652;-78
2023/07/14 02:24:19;;;;;;;1.60;1.15;;;18.90;99.90;;;;;;5041099;28;20302;-78
2023/07/14 02:26:49;;;;;;;0.98;0.98;;;18.80;99.90;;;;;;5038595;28;20202;-78
2023/07/14 02:29:17;;;;;;;1.15;1.05;;;18.80;99.90;;;;;;5035273;28;20325;-78
2023/07/14 02:31:51;;;;;;;1.55;1.15;;;18.70;99.90;;;;;;5040533;28;20298;-78
2023/07/14 02:34:19;;;;;;;1.10;1.10;;;18.70;99.90;;;;;;5037635;28;20246;-77
2023/07/14 02:36:58;;;;;;;0.90;0.90;;;18.60;99.90;;;;;;5040439;28;20322;-79
2023/07/14 02:39:26;;;;;;;1.20;1.10;;;18.60;99.90;;;;;;5038884;28;20287;-78
2023/07/14 02:41:55;;;;;;;1.10;1.00;;;18.60;99.90;;;;;;5040702;28;20253;-78
2023/07/14 02:44:29;;;;;;;2.70;1.20;;;18.60;99.90;;;;;;5038248;28;20215;-79
2023/07/14 02:46:59;;;;;;;1.67;1.00;;;18.60;99.90;;;;;;5038863;28;20282;-79
2023/07/14 02:49:26;;;;;;;1.23;1.00;;;18.70;99.90;;;;;;5038147;28;20322;-79
2023/07/14 02:51:53;;;;;;;1.20;1.20;;;18.80;99.90;;;;;;5038600;28;20302;-78
2023/07/14 02:54:19;;;;;;;1.30;1.20;;;18.80;99.90;;;;;;5036392;28;20291;-78
2023/07/14 02:56:46;;;;;;;1.20;1.20;;;18.80;99.90;;;;;;5038753;28;20702;-78
2023/07/14 02:59:14;;;;;;;1.20;1.20;;;18.80;99.90;;;;;;5039078;28;20307;-78
2023/07/14 03:01:42;;;;;;;1.70;1.33;;;18.80;99.90;;;;;;5041183;28;20195;-78
2023/07/14 03:04:09;;;;;;;1.95;1.20;;;18.80;99.90;;;;;;5040568;28;20460;-78
2023/07/14 03:06:36;;;;;;;1.10;1.08;;;18.70;99.90;;;;;;5038017;28;20206;-78
2023/07/14 03:09:04;;;;;;;1.70;1.15;;;18.60;99.90;;;;;;5040006;28;20325;-79
2023/07/14 03:11:31;;;;;;;1.25;1.17;;;18.60;99.90;;;;;;5039754;28;20215;-78
2023/07/14 03:13:58;;;;;;;1.40;1.30;;;18.60;99.90;;;;;;5036304;28;20227;-77
2023/07/14 03:16:27;;;;;;;1.05;1.05;;;18.50;99.90;;;;;;5039302;28;20232;-79
2023/07/14 03:18:56;;;;;;;0.98;0.98;;;18.50;99.90;;;;;;5037578;28;20215;-78
2023/07/14 03:21:24;;;;;;;1.77;1.10;;;18.40;99.90;;;;;;5038568;28;20191;-78
2023/07/14 03:23:51;;;;;;;1.20;1.15;;;18.40;99.90;;;;;;5038844;28;20200;-78
2023/07/14 03:26:18;;;;;;;1.27;1.17;;;18.40;99.90;;;;;;5040525;28;20195;-77
2023/07/14 03:28:45;;;;;;;1.10;1.10;;;18.40;99.90;;;;;;5038420;28;20255;-77
2023/07/14 03:31:12;;;;;;;1.15;1.15;;;18.40;99.90;;;;;;5037613;28;20273;-78
2023/07/14 03:33:39;;;;;;;1.00;1.00;;;18.30;99.90;;;;;;5034991;28;20209;-77
2023/07/14 03:36:13;;;;;;;1.52;1.42;;;18.40;99.90;;;;;;5034820;28;20254;-78
2023/07/14 03:38:42;;;;;;;1.27;1.23;;;18.30;99.90;;;;;;5039801;28;20304;-78
2023/07/14 03:41:09;;;;;;;0.90;0.90;;;18.30;99.90;;;;;;5036415;28;20229;-79
2023/07/14 03:43:36;;;;;;;2.20;1.10;;;18.30;99.90;;;;;;5039170;28;20227;-78
2023/07/14 03:46:03;;;;;;;0.75;0.75;;;18.30;99.90;;;;;;5036280;28;20628;-78
2023/07/14 03:48:30;;;;;;;1.02;1.02;;;18.30;99.90;;;;;;5040043;28;20317;-78
2023/07/14 03:51:01;;;;;;;1.38;1.10;;;18.30;99.90;;;;;;5035954;28;20341;-78
2023/07/14 03:53:29;;;;;;;1.33;1.23;;;18.20;99.90;;;;;;5041047;28;20294;-78
2023/07/14 03:55:57;;;;;;;1.02;1.02;;;18.20;99.90;;;;;;5036363;28;20238;-78
2023/07/14 03:58:24;;;;;;;0.90;0.90;;;18.20;99.90;;;;;;5040078;28;20848;-79
2023/07/14 04:00:51;;;;;;;1.55;1.20;;;18.20;99.90;;;;;;5035969;28;20361;-79
2023/07/14 04:03:18;;;;;;;1.92;1.35;;;18.20;99.90;;;;;;5037109;28;20199;-78
2023/07/14 04:05:48;;;;;;;1.95;1.02;;;18.20;99.90;;;;;;5035348;28;20207;-78
2023/07/14 04:08:15;;;;;;;1.10;1.10;;;18.20;99.90;;;;;;5037180;28;20723;-78
2023/07/14 04:10:43;;;;;;;1.00;1.00;;;18.20;99.90;;;;;;5036031;28;20838;-78
2023/07/14 04:13:11;;;;;;;1.20;1.02;;;18.20;99.90;;;;;;5038160;28;20293;-78
2023/07/14 04:15:38;;;;;;;1.40;1.30;;;18.20;99.90;;;;;;5038233;28;20234;-78
2023/07/14 04:18:05;;;;;;;1.35;1.25;;;18.20;99.90;;;;;;5034945;28;20791;-78
2023/07/14 04:20:32;;;;;;;1.30;1.20;;;18.30;99.90;;;;;;5041008;28;20277;-78
2023/07/14 04:22:59;;;;;;;0.93;0.93;;;18.30;99.90;;;;;;5041327;28;20294;-78
2023/07/14 04:25:25;;;;;;;1.10;1.00;;;18.40;99.90;;;;;;5038123;28;20393;-78
2023/07/14 04:27:54;;;;;;;1.17;1.13;;;18.50;99.90;;;;;;5036350;28;20238;-78
2023/07/14 04:30:21;;;;;;;1.23;1.13;;;18.60;99.90;;;;;;5038970;28;20622;-78
2023/07/14 04:32:50;;;;;;;1.38;1.30;;;18.60;99.90;;;;;;5036618;28;20223;-78
2023/07/14 04:35:17;;;;;;;1.40;1.30;;;18.70;99.90;;;;;;5035310;28;20552;-78
2023/07/14 04:37:44;;;;;;;1.02;1.02;;;18.70;99.90;;;;;;5041946;28;20210;-78
2023/07/14 04:40:12;;;;;;;1.67;1.00;;;18.90;99.90;;;;;;5039042;28;20231;-77
2023/07/14 04:42:39;;;;;;;1.27;1.20;;;19.00;99.90;;;;;;5037322;28;20195;-76
2023/07/14 04:45:11;;;;;;;1.08;1.08;;;19.10;99.90;;;;;;5038584;28;20233;-76
2023/07/14 04:47:38;;;;;;;1.48;1.20;;;19.30;99.90;;;;;;5040796;28;20553;-76
2023/07/14 04:50:05;;;;;;;1.17;1.10;;;19.50;99.90;;;;;;5043733;28;20223;-77
2023/07/14 04:52:34;;;;;;;1.20;1.10;;;19.60;99.90;;;;;;5043713;28;20661;-78
2023/07/14 04:55:00;;;;;;;1.35;1.25;;;19.90;99.90;;;;;;5042911;28;20281;-78
2023/07/14 04:57:28;;;;;;;1.25;1.23;;;20.10;99.90;;;;;;5036173;28;20751;-78
2023/07/14 04:59:55;;;;;;;1.00;1.00;;;20.30;99.90;;;;;;5037269;28;20759;-77
2023/07/14 05:02:23;;;;;;;1.60;1.17;;;20.30;99.90;;;;;;5037013;28;20227;-77
2023/07/14 05:05:11;;;;;;;2.38;1.52;;;20.40;99.90;;;;;;5035257;28;20199;-77
2023/07/14 05:07:38;;;;;;;1.25;1.23;;;20.40;99.90;;;;;;5034010;28;20231;-78
2023/07/14 05:10:06;;;;;;;1.45;1.35;;;20.40;99.90;;;;;;5039429;28;20792;-77
2023/07/14 05:12:33;;;;;;;1.92;1.30;;;20.30;99.90;;;;;;5038083;28;20265;-78
2023/07/14 05:15:04;;;;;;;1.40;1.30;;;20.40;99.90;;;;;;5038996;28;20261;-78
2023/07/14 05:17:32;;;;;;;1.30;1.20;;;20.40;99.90;;;;;;5033880;28;20209;-77
2023/07/14 05:19:59;;;;;;;1.73;1.50;;;20.40;99.90;;;;;;5033810;28;20222;-78
2023/07/14 05:22:26;;;;;;;1.42;1.25;;;20.40;99.90;;;;;;5039273;28;20234;-78
2023/07/14 05:24:53;;;;;;;1.50;1.40;;;20.30;99.90;;;;;;5037019;28;20230;-77
2023/07/14 05:27:21;;;;;;;1.30;1.20;;;20.20;99.90;;;;;;5035443;28;20286;-78
2023/07/14 05:29:49;;;;;;;2.35;1.30;;;20.10;99.90;;;;;;5034908;28;20332;-78
2023/07/14 05:32:16;;;;;;;1.75;1.38;;;20.00;99.90;;;;;;5039746;28;20215;-79
2023/07/14 05:34:44;;;;;;;1.40;1.30;;;19.90;99.90;;;;;;5042449;28;20302;-78
2023/07/14 05:37:12;;;;;;;1.60;1.50;;;19.80;99.90;;;;;;5042447;28;20234;-77
2023/07/14 05:39:39;;;;;;;3.05;1.30;;;19.70;99.90;;;;;;5042452;28;20309;-77
2023/07/14 05:42:06;;;;;;;1.52;1.40;;;19.70;99.90;;;;;;5039856;28;20218;-78
2023/07/14 05:44:33;;;;;;;1.75;1.27;;;19.60;99.90;;;;;;5033855;28;20629;-76
2023/07/14 05:47:00;;;;;;;1.63;1.50;;;19.60;99.90;;;;;;5031715;28;20325;-77
2023/07/14 05:49:27;;;;;;;1.48;1.20;;;19.70;99.90;;;;;;5031849;28;20667;-77
2023/07/14 05:51:55;;;;;;;1.48;1.38;;;19.90;99.90;;;;;;5032668;28;20316;-76
2023/07/14 05:54:26;;;;;;;22.00;3.45;;;20.10;99.90;;;;;;5033727;28;20721;-76
2023/07/14 05:56:53;;;;;;;3.85;1.92;;;20.30;99.90;;;;;;5034013;28;20203;-76
2023/07/14 05:59:20;;;;;;;2.15;1.40;;;20.60;99.90;;;;;;5031606;28;20219;-76
2023/07/14 06:01:47;;;;;;;1.75;1.52;;;20.60;99.90;;;;;;5040823;28;20282;-76
2023/07/14 06:04:14;;;;;;;2.65;1.70;;;20.50;99.90;;;;;;5037421;28;20286;-76
2023/07/14 06:06:41;;;;;;;3.17;1.60;;;20.50;99.90;;;;;;5038329;28;20684;-76
2023/07/14 06:09:10;;;;;;;3.72;1.60;;;20.50;99.90;;;;;;5039314;28;20297;-77
2023/07/14 06:11:37;;;;;;;4.03;1.40;;;20.50;99.90;;;;;;5038768;28;20201;-77
2023/07/14 06:14:04;;;;;;;1.83;1.50;;;20.60;99.90;;;;;;5039569;28;20293;-76
2023/07/14 06:16:31;;;;;;;2.28;1.55;;;20.70;99.90;;;;;;5036737;28;20206;-76
2023/07/14 06:18:58;;;;;;;2.28;1.58;;;20.80;99.90;;;;;;5033636;28;20333;-76
2023/07/14 06:21:25;;;;;;;2.72;1.33;;;20.90;99.90;;;;;;5036680;28;20235;-78
2023/07/14 06:23:51;;;;;;;2.55;1.50;;;20.90;99.90;;;;;;5037557;28;20294;-77
2023/07/14 06:26:20;;;;;;;1.98;1.40;;;20.80;99.90;;;;;;5040492;28;20285;-78
2023/07/14 06:28:47;;;;;;;1.45;1.35;;;20.90;99.90;;;;;;5038482;28;20302;-76
2023/07/14 06:31:14;;;;;;;1.55;1.45;;;21.00;99.90;;;;;;5035646;28;20281;-76
2023/07/14 06:33:41;;;;;;;1.45;1.35;;;21.00;99.90;;;;;;5036851;28;20306;-77
2023/07/14 06:36:08;;;;;;;2.00;1.33;;;21.20;99.90;;;;;;5035625;28;20278;-75
2023/07/14 06:38:36;;;;;;;1.60;1.50;;;21.20;99.90;;;;;;5038201;28;20309;-77
2023/07/14 06:41:07;;;;;;;1.98;1.60;;;21.20;99.90;;;;;;5035941;28;20199;-77
2023/07/14 06:43:36;;;;;;;2.53;1.65;;;21.20;99.90;;;;;;5033361;28;20231;-76
2023/07/14 06:46:03;;;;;;;2.25;1.42;;;21.20;99.90;;;;;;5036081;28;20194;-76
2023/07/14 06:48:30;;;;;;;1.55;1.45;;;21.20;99.90;;;;;;5033492;28;20243;-76
2023/07/14 06:50:57;;;;;;;1.88;1.52;;;21.10;99.90;;;;;;5034348;28;20289;-77
2023/07/14 06:53:24;;;;;;;1.77;1.65;;;21.10;99.90;;;;;;5037429;28;20254;-77
2023/07/14 06:55:51;;;;;;;1.63;1.52;;;21.10;99.90;;;;;;5036999;28;20361;-77
2023/07/14 06:58:18;;;;;;;1.63;1.52;;;21.40;99.90;;;;;;5037628;28;20250;-76
2023/07/14 07:00:47;;;;;;;2.33;1.55;;;21.50;99.90;;;;;;5036733;28;20283;-76
2023/07/14 07:03:14;;;;;;;2.20;1.60;;;21.60;99.90;;;;;;5036639;28;20341;-76
2023/07/14 07:05:45;;;;;;;2.67;1.75;;;21.50;99.90;;;;;;5034015;28;20287;-77
2023/07/14 07:08:13;;;;;;;1.52;1.42;;;21.60;99.90;;;;;;5031304;28;20372;-76
2023/07/14 07:10:41;;;;;;;1.80;1.60;;;21.90;99.90;;;;;;5032581;28;20933;-76
2023/07/14 07:13:09;;;;;;;2.17;1.63;;;21.90;99.90;;;;;;5038149;28;20214;-77
2023/07/14 07:15:36;;;;;;;2.47;1.88;;;22.00;99.90;;;;;;5034059;28;20299;-76
2023/07/14 07:18:04;;;;;;;2.25;2.00;;;22.20;99.90;;;;;;5034214;28;20341;-76
2023/07/14 07:20:31;;;;;;;1.70;1.58;;;22.30;99.90;;;;;;5038847;28;20282;-77
2023/07/14 07:22:58;;;;;;;2.38;1.60;;;22.30;99.90;;;;;;5035097;28;20730;-76
2023/07/14 07:25:25;;;;;;;2.25;1.63;;;22.30;99.90;;;;;;5037822;28;20227;-77
2023/07/14 07:27:52;;;;;;;3.05;1.52;;;22.30;99.90;;;;;;5033150;28;20607;-76
2023/07/14 07:30:19;;;;;;;1.42;1.33;;;22.30;99.90;;;;;;5035538;28;20198;-77
2023/07/14 07:32:46;;;;;;;4.35;1.90;;;22.60;99.90;;;;;;5033690;28;20338;-77
2023/07/14 07:35:15;;;;;;;1.55;1.45;;;22.50;99.90;;;;;;5036620;28;20287;-75
2023/07/14 07:37:42;;;;;;;1.58;1.48;;;22.50;99.90;;;;;;5038593;28;20315;-76
2023/07/14 07:40:12;;;;;;;2.65;2.10;;;22.70;99.90;;;;;;5035894;28;20282;-76
2023/07/14 07:42:40;;;;;;;2.50;1.65;;;22.80;99.90;;;;;;5033114;28;20196;-76
2023/07/14 07:45:08;;;;;;;2.78;1.60;;;22.90;99.90;;;;;;5035459;28;20203;-77
2023/07/14 07:47:35;;;;;;;1.67;1.45;;;23.00;99.90;;;;;;5034512;28;20279;-77
2023/07/14 07:50:03;;;;;;;1.48;1.38;;;23.00;99.90;;;;;;5039281;28;20215;-77
2023/07/14 07:52:32;;;;;;;3.22;1.92;;;23.00;99.90;;;;;;5035371;28;20234;-77
2023/07/14 07:55:00;;;;;;;2.60;1.52;;;23.10;99.90;;;;;;5037139;28;20226;-76
2023/07/14 07:57:27;;;;;;;2.70;1.50;;;23.20;99.90;;;;;;5037181;28;20210;-77
2023/07/14 07:59:54;;;;;;;4.30;1.75;;;23.30;99.90;;;;;;5037201;28;20308;-75
2023/07/14 08:02:20;;;;;;;1.48;1.38;;;23.50;99.90;;;;;;5036344;28;20281;-76
2023/07/14 08:04:49;;;;;;;4.18;1.80;;;23.60;99.90;;;;;;5035731;28;20289;-77
2023/07/14 08:07:16;;;;;;;3.53;1.90;;;23.70;99.90;;;;;;5038707;28;20241;-76
2023/07/14 08:09:44;;;;;;;3.03;1.95;;;23.60;99.90;;;;;;5034147;28;20300;-76
2023/07/14 08:12:11;;;;;;;1.88;1.65;;;23.70;99.90;;;;;;5034475;28;20207;-75
2023/07/14 08:14:51;;;;;;;2.08;1.48;;;23.80;99.90;;;;;;5038464;28;20288;-76
2023/07/14 08:17:18;;;;;;;2.25;1.40;;;23.80;99.90;;;;;;5032646;28;20218;-77
2023/07/14 08:19:45;;;;;;;2.13;1.60;;;23.70;99.90;;;;;;5035103;28;20246;-76
2023/07/14 08:22:12;;;;;;;1.77;1.50;;;23.80;99.90;;;;;;5036230;28;20195;-77
2023/07/14 08:24:39;;;;;;;1.60;1.38;;;24.00;99.90;;;;;;5036108;28;20212;-76
2023/07/14 08:27:07;;;;;;;2.25;1.65;;;24.10;99.90;;;;;;5035925;28;20835;-77
2023/07/14 08:29:34;;;;;;;1.80;1.70;;;24.10;99.90;;;;;;5037070;28;20230;-76
2023/07/14 08:32:01;;;;;;;3.15;1.75;;;24.20;99.90;;;;;;5037532;28;20294;-77
2023/07/14 08:34:29;;;;;;;2.13;1.80;;;24.50;99.90;;;;;;5030564;28;20306;-76
2023/07/14 08:36:56;;;;;;;3.30;1.70;;;24.60;99.90;;;;;;5035116;28;20281;-77
2023/07/14 08:39:23;;;;;;;3.17;1.70;;;24.60;99.90;;;;;;5039403;28;20223;-76
2023/07/14 08:41:53;;;;;;;2.50;1.70;;;24.60;99.90;;;;;;5036261;28;20238;-75
2023/07/14 08:44:39;;;;;;;1.88;1.63;;;24.50;99.90;;;;;;5034132;28;20827;-77
2023/07/14 08:47:16;;;;;;;1.73;1.63;;;24.60;99.90;;;;;;5034489;28;20242;-76
2023/07/14 08:49:49;;;;;;;1.63;1.40;;;24.50;99.90;;;;;;5038739;28;20226;-77
2023/07/14 08:52:22;;;;;;;1.83;1.40;;;24.70;99.90;;;;;;5034386;28;20286;-77
2023/07/14 08:54:56;;;;;;;1.40;1.30;;;24.80;99.90;;;;;;5038068;28;21640;-76
2023/07/14 08:57:25;;;;;;;2.60;1.50;;;24.90;99.90;;;;;;5036540;28;20202;-76
2023/07/14 08:59:57;;;;;;;2.45;1.27;;;25.20;99.90;;;;;;5035260;28;20305;-76
2023/07/14 09:02:32;;;;;;;1.65;1.55;;;25.40;99.90;;;;;;5035878;28;20289;-76
2023/07/14 09:05:02;;;;;;;1.45;1.25;;;25.60;99.90;;;;;;5039709;28;20213;-76
2023/07/14 09:07:29;;;;;;;2.45;1.50;;;25.70;99.90;;;;;;5034667;28;20233;-76
2023/07/14 09:09:57;;;;;;;1.55;1.40;;;25.70;99.90;;;;;;5037739;28;20218;-75
2023/07/14 09:12:28;;;;;;;1.60;1.50;;;25.90;99.90;;;;;;5038320;28;20211;-77
2023/07/14 09:15:03;;;;;;;1.60;1.50;;;26.00;99.90;;;;;;5039594;28;20194;-76
2023/07/14 09:17:43;;;;;;;1.80;1.48;;;26.20;99.90;;;;;;5037148;28;20290;-77
2023/07/14 09:20:35;;;;;;;1.40;1.30;;;26.30;99.90;;;;;;5034789;28;20202;-75
2023/07/14 09:23:15;;;;;;;1.60;1.50;;;26.20;99.90;;;;;;5033494;28;20903;-76
2023/07/14 09:25:49;;;;;;;2.15;1.58;;;26.30;99.90;;;;;;5034577;28;20234;-76
2023/07/14 09:28:21;;;;;;;1.70;1.60;;;26.20;99.90;;;;;;5038254;28;20722;-77
2023/07/14 09:30:52;;;;;;;1.42;1.27;;;26.20;99.90;;;;;;5031824;28;20230;-77
2023/07/14 09:33:21;;;;;;;1.40;1.30;;;26.40;99.90;;;;;;5032579;28;20590;-76
2023/07/14 09:35:49;;;;;;;1.50;1.40;;;26.60;99.90;;;;;;5037733;28;20297;-77
2023/07/14 09:38:22;;;;;;;3.13;1.50;;;26.70;99.90;;;;;;5036211;28;20229;-76
2023/07/14 09:40:56;;;;;;;2.85;1.35;;;26.90;99.90;;;;;;5037397;28;20203;-77
2023/07/14 09:43:23;;;;;;;1.33;1.23;;;27.10;99.90;;;;;;5035772;28;20219;-76
2023/07/14 09:45:54;;;;;;;1.85;1.60;;;27.00;99.90;;;;;;5035192;28;20199;-76
2023/07/14 09:48:25;;;;;;;1.55;1.45;;;26.90;99.90;;;;;;5037996;28;20313;-76
2023/07/14 09:50:57;;;;;;;1.50;1.40;;;26.90;99.90;;;;;;5035839;28;20223;-76
2023/07/14 09:53:24;;;;;;;1.50;1.40;;;26.80;99.90;;;;;;5037724;28;21098;-76
2023/07/14 09:55:58;;;;;;;2.28;1.40;;;26.80;99.90;;;;;;5036416;28;20369;-75
2023/07/14 09:58:31;;;;;;;1.73;1.48;;;26.70;99.90;;;;;;5033897;28;20445;-76
2023/07/14 10:01:04;;;;;;;3.67;1.40;;;26.70;99.90;;;;;;5035661;28;20203;-77
2023/07/14 10:03:36;;;;;;;1.40;1.30;;;26.80;99.90;;;;;;5035476;28;20203;-76
2023/07/14 10:06:05;;;;;;;1.20;1.10;;;27.10;99.90;;;;;;5035679;28;20286;-75
2023/07/14 10:08:34;;;;;;;2.67;1.45;;;27.10;99.90;;;;;;5039466;28;20293;-75
2023/07/14 10:11:15;;;;;;;2.40;1.77;;;27.20;99.90;;;;;;5036107;28;20297;-76
2023/07/14 10:13:57;;;;;;;1.40;1.30;;;27.10;99.90;;;;;;5036449;28;20251;-77
2023/07/14 10:16:26;;;;;;;2.03;1.50;;;27.20;99.90;;;;;;5034673;28;20850;-76
2023/07/14 10:18:56;;;;;;;1.63;1.30;;;27.20;99.90;;;;;;5034507;28;21602;-76
2023/07/14 10:21:26;;;;;;;1.55;1.45;;;27.30;99.90;;;;;;5037870;28;20294;-76
2023/07/14 10:24:05;;;;;;;1.40;1.30;;;27.40;99.90;;;;;;5037394;28;20802;-76
2023/07/14 10:26:34;;;;;;;1.40;1.30;;;27.50;99.90;;;;;;5039017;28;20199;-75
2023/07/14 10:29:04;;;;;;;1.50;1.40;;;27.70;99.90;;;;;;5033739;28;20833;-75
2023/07/14 10:31:41;;;;;;;3.35;1.20;;;27.60;99.90;;;;;;5035460;28;20203;-76
2023/07/14 10:34:21;;;;;;;1.60;1.50;;;27.70;99.90;;;;;;5037864;28;20558;-76
2023/07/14 10:36:51;;;;;;;1.45;1.35;;;27.60;99.90;;;;;;5036196;28;20287;-76
2023/07/14 10:39:28;;;;;;;5.07;1.42;;;27.50;99.90;;;;;;5036100;28;20302;-76
2023/07/14 10:41:58;;;;;;;1.40;1.30;;;27.80;99.90;;;;;;5039004;28;20234;-75
2023/07/14 10:44:29;;;;;;;1.58;1.25;;;28.10;99.90;;;;;;5037206;28;20198;-76
2023/07/14 10:47:02;;;;;;;2.10;1.27;;;28.20;99.90;;;;;;5034959;28;20295;-76
2023/07/14 10:49:36;;;;;;;1.40;1.30;;;28.00;99.90;;;;;;5037896;28;20238;-75
2023/07/14 10:52:09;;;;;;;1.27;1.08;;;27.80;99.90;;;;;;5034569;28;20230;-78
2023/07/14 10:54:47;;;;;;;1.50;1.30;;;27.90;99.90;;;;;;5037364;28;20680;-77
2023/07/14 10:57:34;;;;;;;1.48;1.38;;;28.00;99.90;;;;;;5041653;28;20231;-78
2023/07/14 11:00:19;;;;;;;1.50;1.40;;;28.10;99.90;;;;;;5036920;28;20311;-77
2023/07/14 11:02:54;;;;;;;1.35;1.20;;;28.00;99.90;;;;;;5034997;28;20300;-77
2023/07/14 11:05:24;;;;;;;1.30;1.20;;;27.70;99.90;;;;;;5039856;28;20906;-77
2023/07/14 11:07:52;;;;;;;1.65;1.42;;;27.60;99.90;;;;;;5039139;28;20205;-76
2023/07/14 11:10:30;;;;;;;1.98;1.30;;;27.80;99.90;;;;;;5038210;28;20550;-77
2023/07/14 11:13:04;;;;;;;1.80;1.45;;;28.10;99.90;;;;;;5035885;28;20790;-77
2023/07/14 11:15:41;;;;;;;1.25;1.17;;;28.40;99.90;;;;;;5036471;28;20310;-77
2023/07/14 11:18:24;;;;;;;1.23;1.15;;;28.60;99.90;;;;;;5037619;28;20246;-76
2023/07/14 11:21:04;;;;;;;1.35;1.10;;;28.90;99.90;;;;;;5033094;28;20724;-77
2023/07/14 11:23:37;;;;;;;1.20;1.10;;;29.00;99.90;;;;;;5034759;28;20210;-76
2023/07/14 11:26:10;;;;;;;1.38;1.27;;;29.20;99.90;;;;;;5033673;28;20200;-77
2023/07/14 11:28:46;;;;;;;1.95;1.10;;;29.50;99.90;;;;;;5036210;28;20220;-77
2023/07/14 11:31:27;;;;;;;1.67;1.23;;;29.60;99.90;;;;;;5037027;28;20226;-76
2023/07/14 11:34:16;;;;;;;1.40;1.30;;;29.80;99.90;;;;;;5037115;28;20276;-78
2023/07/14 11:36:53;;;;;;;2.60;1.10;;;29.70;99.90;;;;;;5038513;28;20223;-77
2023/07/14 11:39:32;;;;;;;1.77;1.33;;;29.60;99.90;;;;;;5035424;28;20219;-76
2023/07/14 11:42:00;;;;;;;1.40;1.30;;;29.60;99.90;;;;;;5036893;28;20721;-77
2023/07/14 11:44:27;;;;;;;1.30;1.20;;;29.40;99.90;;;;;;5035400;28;20210;-77
2023/07/14 11:46:54;;;;;;;1.15;1.05;;;29.30;99.90;;;;;;5033085;28;20214;-77
2023/07/14 11:49:26;;;;;;;1.10;1.00;;;28.90;99.90;;;;;;5035342;28;20250;-77
2023/07/14 11:51:57;;;;;;;1.20;1.10;;;28.50;99.90;;;;;;5035725;28;20293;-77
2023/07/14 11:54:40;;;;;;;2.15;1.25;;;28.50;99.90;;;;;;5035385;28;20441;-78
2023/07/14 11:57:13;;;;;;;1.30;1.20;;;28.70;99.90;;;;;;5035367;28;20203;-78
2023/07/14 11:59:56;;;;;;;2.47;1.23;;;28.50;99.90;;;;;;5036475;28;20272;-77
2023/07/14 12:02:38;;;;;;;1.30;1.25;;;28.30;99.90;;;;;;5033934;28;20202;-77
2023/07/14 12:05:35;;;;;;;2.00;1.40;;;28.30;99.90;;;;;;5035154;28;20731;-77
2023/07/14 12:08:23;;;;;;;1.33;1.02;;;28.30;99.90;;;;;;5036849;28;20602;-78
2023/07/14 12:10:50;;;;;;;1.40;1.30;;;28.30;99.90;;;;;;5036106;28;20211;-78
2023/07/14 12:13:29;;;;;;;1.60;1.30;;;28.20;99.90;;;;;;5034577;28;20227;-78
2023/07/14 12:16:22;;;;;;;2.00;1.70;;;28.00;99.90;;;;;;5035111;28;20195;-77
2023/07/14 12:19:21;;;;;;;1.42;1.33;;;28.00;99.90;;;;;;5033936;28;20218;-78
2023/07/14 12:22:02;;;;;;;1.95;1.63;;;28.10;99.90;;;;;;5007010;28;20390;-78
2023/07/14 12:24:32;;;;;;;3.83;1.73;;;28.10;99.90;;;;;;5036111;28;20279;-79
2023/07/14 12:27:26;;;;;;;2.08;1.88;;;28.10;99.90;;;;;;5033355;28;20199;-76
2023/07/14 12:30:02;;;;;;;2.55;1.80;;;28.10;99.90;;;;;;5035506;28;20297;-77
2023/07/14 12:32:29;;;;;;;1.67;1.58;;;28.20;99.90;;;;;;5031869;28;20241;-76
2023/07/14 12:34:57;;;;;;;2.13;1.70;;;28.20;99.90;;;;;;5032284;28;20390;-77
2023/07/14 12:37:26;;;;;;;2.42;1.73;;;28.10;99.90;;;;;;5035292;28;20636;-77
2023/07/14 12:39:54;;;;;;;3.90;1.88;;;28.00;99.90;;;;;;5037474;28;20542;-76
2023/07/14 12:42:22;;;;;;;3.35;1.90;;;28.10;99.90;;;;;;5033619;28;20268;-76
2023/07/14 12:44:54;;;;;;;2.55;1.65;;;28.20;99.90;;;;;;5033031;28;20333;-77
2023/07/14 12:47:21;;;;;;;3.95;2.00;;;28.30;99.90;;;;;;5032811;28;20203;-77
2023/07/14 12:49:51;;;;;;;2.55;2.35;;;28.20;99.90;;;;;;5034002;28;20758;-76
2023/07/14 12:52:27;;;;;;;2.00;1.55;;;28.20;99.90;;;;;;5030956;28;20256;-77
2023/07/14 12:54:58;;;;;;;1.92;1.63;;;28.40;99.90;;;;;;5035300;28;20242;-76
2023/07/14 12:57:25;;;;;;;1.73;1.52;;;28.50;99.90;;;;;;5036260;28;20608;-77
2023/07/14 12:59:53;;;;;;;2.10;1.90;;;28.60;99.90;;;;;;5036767;28;20272;-76
2023/07/14 13:02:22;;;;;;;2.55;1.65;;;28.60;99.90;;;;;;5034573;28;20199;-77
2023/07/14 13:07:27;;;;;;;2.22;1.90;;;28.90;99.90;;;;;;4980109;28;20216;-75